sensor_id;sensor_type;location;lat;lon;timestamp;pressure;altitude;pressure_sealevel;temperature;humidity
47883;BME280;37739;50.350;7.578;2022-10-16T00:01:09;99415.34;;;15.36;92.45
47883;BME280;37739;50.350;7.578;2022-10-16T00:03:36;99416.19;;;15.35;92.43
47883;BME280;37739;50.350;7.578;2022-10-16T00:06:02;99422.22;;;15.34;92.34
47883;BME280;37739;50.350;7.578;2022-10-16T00:08:28;99411.00;;;15.34;92.41
47883;BME280;37739;50.350;7.578;2022-10-16T00:11:09;99413.56;;;15.34;92.22
47883;BME280;37739;50.350;7.578;2022-10-16T00:13:39;99413.56;;;15.34;92.12
47883;BME280;37739;50.350;7.578;2022-10-16T00:16:08;99409.31;;;15.34;92.20
47883;BME280;37739;50.350;7.578;2022-10-16T00:18:36;99418.72;;;15.30;92.08
47883;BME280;37739;50.350;7.578;2022-10-16T00:21:15;99425.63;;;15.30;92.17
47883;BME280;37739;50.350;7.578;2022-10-16T00:23:41;99413.53;;;15.29;92.24
47883;BME280;37739;50.350;7.578;2022-10-16T00:26:13;99401.44;;;15.28;92.05
47883;BME280;37739;50.350;7.578;2022-10-16T00:28:44;99410.91;;;15.26;91.93
47883;BME280;37739;50.350;7.578;2022-10-16T00:31:11;99432.44;;;15.25;91.93
47883;BME280;37739;50.350;7.578;2022-10-16T00:33:38;99428.09;;;15.24;92.03
47883;BME280;37739;50.350;7.578;2022-10-16T00:36:05;99416.03;;;15.21;91.64
47883;BME280;37739;50.350;7.578;2022-10-16T00:38:31;99422.06;;;15.22;91.86
47883;BME280;37739;50.350;7.578;2022-10-16T00:40:57;99426.41;;;15.24;91.57
47883;BME280;37739;50.350;7.578;2022-10-16T00:46:13;99439.28;;;15.21;91.20
47883;BME280;37739;50.350;7.578;2022-10-16T00:48:46;99440.97;;;15.19;91.21
47883;BME280;37739;50.350;7.578;2022-10-16T00:51:21;99462.50;;;15.20;91.06
47883;BME280;37739;50.350;7.578;2022-10-16T00:53:48;99475.38;;;15.15;91.02
47883;BME280;37739;50.350;7.578;2022-10-16T00:56:14;99471.94;;;15.16;91.16
47883;BME280;37739;50.350;7.578;2022-10-16T00:58:41;99456.44;;;15.15;90.96
47883;BME280;37739;50.350;7.578;2022-10-16T01:01:07;99451.28;;;15.15;91.00
47883;BME280;37739;50.350;7.578;2022-10-16T01:03:36;99424.53;;;15.12;90.92
47883;BME280;37739;50.350;7.578;2022-10-16T01:06:09;99410.72;;;15.09;90.35
47883;BME280;37739;50.350;7.578;2022-10-16T01:11:22;99452.94;;;15.11;90.25
47883;BME280;37739;50.350;7.578;2022-10-16T01:13:58;99457.22;;;15.10;89.98
47883;BME280;37739;50.350;7.578;2022-10-16T01:16:53;99451.16;;;15.08;89.79
47883;BME280;37739;50.350;7.578;2022-10-16T01:19:26;99453.75;;;15.08;89.86
47883;BME280;37739;50.350;7.578;2022-10-16T01:21:58;99448.59;;;15.10;89.49
47883;BME280;37739;50.350;7.578;2022-10-16T01:24:38;99458.09;;;15.09;89.36
47883;BME280;37739;50.350;7.578;2022-10-16T01:29:50;99458.91;;;15.08;89.11
47883;BME280;37739;50.350;7.578;2022-10-16T01:37:47;99443.38;;;15.04;89.47
47883;BME280;37739;50.350;7.578;2022-10-16T01:40:16;99447.69;;;15.06;89.13
47883;BME280;37739;50.350;7.578;2022-10-16T01:42:47;99445.09;;;15.05;89.13
47883;BME280;37739;50.350;7.578;2022-10-16T01:45:15;99452.88;;;15.08;89.14
47883;BME280;37739;50.350;7.578;2022-10-16T01:47:45;99454.59;;;15.06;89.27
47883;BME280;37739;50.350;7.578;2022-10-16T01:50:12;99463.16;;;15.05;89.09
47883;BME280;37739;50.350;7.578;2022-10-16T01:52:40;99470.91;;;15.05;89.08
47883;BME280;37739;50.350;7.578;2022-10-16T01:55:10;99470.06;;;15.04;88.90
47883;BME280;37739;50.350;7.578;2022-10-16T01:57:39;99458.88;;;15.04;89.01
47883;BME280;37739;50.350;7.578;2022-10-16T02:00:10;99455.38;;;15.00;88.76
47883;BME280;37739;50.350;7.578;2022-10-16T02:02:40;99458.81;;;14.99;88.88
47883;BME280;37739;50.350;7.578;2022-10-16T02:05:26;99449.34;;;15.00;88.94
47883;BME280;37739;50.350;7.578;2022-10-16T02:07:54;99464.88;;;15.01;88.78
47883;BME280;37739;50.350;7.578;2022-10-16T02:10:25;99470.03;;;15.03;88.64
47883;BME280;37739;50.350;7.578;2022-10-16T02:12:57;99471.78;;;15.04;88.64
47883;BME280;37739;50.350;7.578;2022-10-16T02:15:24;99483.00;;;15.06;88.56
47883;BME280;37739;50.350;7.578;2022-10-16T02:17:49;99476.13;;;15.06;88.64
47883;BME280;37739;50.350;7.578;2022-10-16T02:20:17;99480.47;;;15.09;88.63
47883;BME280;37739;50.350;7.578;2022-10-16T02:22:47;99490.81;;;15.09;88.20
47883;BME280;37739;50.350;7.578;2022-10-16T02:25:22;99491.66;;;15.09;88.41
47883;BME280;37739;50.350;7.578;2022-10-16T02:28:04;99490.81;;;15.09;88.45
47883;BME280;37739;50.350;7.578;2022-10-16T02:30:36;99502.00;;;15.09;88.48
47883;BME280;37739;50.350;7.578;2022-10-16T02:33:09;99502.88;;;15.10;88.59
47883;BME280;37739;50.350;7.578;2022-10-16T02:35:37;99499.44;;;15.09;88.42
47883;BME280;37739;50.350;7.578;2022-10-16T02:38:06;99495.09;;;15.08;88.60
47883;BME280;37739;50.350;7.578;2022-10-16T02:40:36;99500.25;;;15.08;88.81
47883;BME280;37739;50.350;7.578;2022-10-16T02:43:05;99483.88;;;15.06;89.04
47883;BME280;37739;50.350;7.578;2022-10-16T02:45:32;99476.94;;;15.02;89.48
47883;BME280;37739;50.350;7.578;2022-10-16T02:48:00;99471.72;;;15.01;89.85
47883;BME280;37739;50.350;7.578;2022-10-16T02:50:27;99451.91;;;14.98;90.21
47883;BME280;37739;50.350;7.578;2022-10-16T02:52:53;99470.78;;;14.94;90.66
47883;BME280;37739;50.350;7.578;2022-10-16T02:55:21;99484.44;;;14.85;91.40
47883;BME280;37739;50.350;7.578;2022-10-16T02:57:46;99468.91;;;14.82;91.76
47883;BME280;37739;50.350;7.578;2022-10-16T03:00:13;99458.53;;;14.79;92.07
47883;BME280;37739;50.350;7.578;2022-10-16T03:02:42;99463.66;;;14.78;92.75
47883;BME280;37739;50.350;7.578;2022-10-16T03:05:09;99461.09;;;14.76;93.08
47883;BME280;37739;50.350;7.578;2022-10-16T03:07:34;99455.84;;;14.73;93.35
47883;BME280;37739;50.350;7.578;2022-10-16T03:10:02;99447.25;;;14.74;94.00
47883;BME280;37739;50.350;7.578;2022-10-16T03:12:28;99461.88;;;14.73;94.20
47883;BME280;37739;50.350;7.578;2022-10-16T03:14:55;99473.94;;;14.73;94.11
47883;BME280;37739;50.350;7.578;2022-10-16T03:17:21;99479.03;;;14.70;94.75
47883;BME280;37739;50.350;7.578;2022-10-16T03:19:47;99491.09;;;14.69;95.14
47883;BME280;37739;50.350;7.578;2022-10-16T03:22:14;99493.63;;;14.68;94.97
47883;BME280;37739;50.350;7.578;2022-10-16T03:24:42;99489.38;;;14.70;94.93
47883;BME280;37739;50.350;7.578;2022-10-16T03:27:07;99501.44;;;14.71;94.57
47883;BME280;37739;50.350;7.578;2022-10-16T03:29:35;99502.31;;;14.71;94.64
47883;BME280;37739;50.350;7.578;2022-10-16T03:32:05;99501.41;;;14.69;94.54
47883;BME280;37739;50.350;7.578;2022-10-16T03:34:33;99502.25;;;14.67;94.57
47883;BME280;37739;50.350;7.578;2022-10-16T03:36:58;99509.13;;;14.68;94.70
47883;BME280;37739;50.350;7.578;2022-10-16T03:39:23;99503.94;;;14.65;94.79
47883;BME280;37739;50.350;7.578;2022-10-16T03:41:49;99503.91;;;14.63;94.90
47883;BME280;37739;50.350;7.578;2022-10-16T03:44:14;99521.09;;;14.61;95.01
47883;BME280;37739;50.350;7.578;2022-10-16T03:46:39;99517.66;;;14.62;94.79
47883;BME280;37739;50.350;7.578;2022-10-16T03:49:04;99521.13;;;14.64;94.59
47883;BME280;37739;50.350;7.578;2022-10-16T03:51:30;99512.53;;;14.65;94.54
47883;BME280;37739;50.350;7.578;2022-10-16T03:53:58;99515.13;;;14.65;94.51
47883;BME280;37739;50.350;7.578;2022-10-16T03:56:25;99523.75;;;14.67;94.31
47883;BME280;37739;50.350;7.578;2022-10-16T03:58:51;99530.66;;;14.67;94.82
47883;BME280;37739;50.350;7.578;2022-10-16T04:01:16;99523.72;;;14.66;94.53
47883;BME280;37739;50.350;7.578;2022-10-16T04:03:44;99527.19;;;14.65;94.66
47883;BME280;37739;50.350;7.578;2022-10-16T04:06:13;99524.56;;;14.63;94.35
47883;BME280;37739;50.350;7.578;2022-10-16T04:08:42;99521.97;;;14.63;94.11
47883;BME280;37739;50.350;7.578;2022-10-16T04:11:10;99520.19;;;14.59;94.36
47883;BME280;37739;50.350;7.578;2022-10-16T04:13:40;99526.25;;;14.61;94.43
47883;BME280;37739;50.350;7.578;2022-10-16T04:16:06;99540.03;;;14.62;93.78
47883;BME280;37739;50.350;7.578;2022-10-16T04:18:34;99534.84;;;14.62;93.73
47883;BME280;37739;50.350;7.578;2022-10-16T04:21:04;99531.38;;;14.60;93.30
47883;BME280;37739;50.350;7.578;2022-10-16T04:23:33;99525.34;;;14.59;93.05
47883;BME280;37739;50.350;7.578;2022-10-16T04:25:59;99532.22;;;14.59;92.71
47883;BME280;37739;50.350;7.578;2022-10-16T04:28:26;99533.06;;;14.58;92.19
47883;BME280;37739;50.350;7.578;2022-10-16T04:30:54;99542.53;;;14.59;91.99
47883;BME280;37739;50.350;7.578;2022-10-16T04:33:22;99544.25;;;14.58;91.97
47883;BME280;37739;50.350;7.578;2022-10-16T04:35:47;99539.13;;;14.60;91.71
47883;BME280;37739;50.350;7.578;2022-10-16T04:38:13;99543.34;;;14.56;91.07
47883;BME280;37739;50.350;7.578;2022-10-16T04:40:42;99525.25;;;14.56;91.47
47883;BME280;37739;50.350;7.578;2022-10-16T04:43:07;99517.47;;;14.54;91.39
47883;BME280;37739;50.350;7.578;2022-10-16T04:45:32;99517.50;;;14.53;91.74
47883;BME280;37739;50.350;7.578;2022-10-16T04:48:00;99528.59;;;14.50;91.88
47883;BME280;37739;50.350;7.578;2022-10-16T04:50:28;99552.66;;;14.48;92.18
47883;BME280;37739;50.350;7.578;2022-10-16T04:52:55;99546.53;;;14.43;92.47
47883;BME280;37739;50.350;7.578;2022-10-16T04:55:23;99550.81;;;14.41;92.72
47883;BME280;37739;50.350;7.578;2022-10-16T04:57:48;99555.16;;;14.42;92.69
47883;BME280;37739;50.350;7.578;2022-10-16T05:00:13;99546.53;;;14.43;92.41
47883;BME280;37739;50.350;7.578;2022-10-16T05:02:41;99548.34;;;14.47;91.92
47883;BME280;37739;50.350;7.578;2022-10-16T05:05:09;99549.22;;;14.47;91.89
47883;BME280;37739;50.350;7.578;2022-10-16T05:07:34;99553.50;;;14.47;92.00
47883;BME280;37739;50.350;7.578;2022-10-16T05:09:59;99563.81;;;14.45;92.00
47883;BME280;37739;50.350;7.578;2022-10-16T05:12:25;99562.94;;;14.45;91.79
47883;BME280;37739;50.350;7.578;2022-10-16T05:14:52;99557.75;;;14.45;91.64
47883;BME280;37739;50.350;7.578;2022-10-16T05:17:18;99558.63;;;14.44;91.48
47883;BME280;37739;50.350;7.578;2022-10-16T05:19:43;99546.53;;;14.43;91.45
47883;BME280;37739;50.350;7.578;2022-10-16T05:22:08;99546.53;;;14.43;91.24
47883;BME280;37739;50.350;7.578;2022-10-16T05:24:34;99541.38;;;14.43;91.40
47883;BME280;37739;50.350;7.578;2022-10-16T05:26:59;99550.81;;;14.41;91.20
47883;BME280;37739;50.350;7.578;2022-10-16T05:29:31;99561.97;;;14.38;91.67
47883;BME280;37739;50.350;7.578;2022-10-16T05:31:57;99550.78;;;14.39;92.00
47883;BME280;37739;50.350;7.578;2022-10-16T05:34:22;99549.91;;;14.39;92.21
47883;BME280;37739;50.350;7.578;2022-10-16T05:36:47;99556.84;;;14.41;91.89
47883;BME280;37739;50.350;7.578;2022-10-16T05:39:14;99564.56;;;14.40;92.32
47883;BME280;37739;50.350;7.578;2022-10-16T05:41:42;99561.97;;;14.38;92.49
47883;BME280;37739;50.350;7.578;2022-10-16T05:44:09;99566.22;;;14.36;92.77
47883;BME280;37739;50.350;7.578;2022-10-16T05:46:34;99580.84;;;14.37;93.01
47883;BME280;37739;50.350;7.578;2022-10-16T05:49:00;99597.16;;;14.34;93.45
47883;BME280;37739;50.350;7.578;2022-10-16T05:51:26;99590.25;;;14.33;93.35
47883;BME280;37739;50.350;7.578;2022-10-16T05:53:52;99582.50;;;14.33;93.35
47883;BME280;37739;50.350;7.578;2022-10-16T05:56:19;99585.09;;;14.33;93.51
47883;BME280;37739;50.350;7.578;2022-10-16T05:58:45;99582.50;;;14.33;93.68
47883;BME280;37739;50.350;7.578;2022-10-16T06:01:15;99583.38;;;14.32;93.79
47883;BME280;37739;50.350;7.578;2022-10-16T06:03:41;99584.28;;;14.36;93.90
47883;BME280;37739;50.350;7.578;2022-10-16T06:06:14;99592.84;;;14.35;93.93
47883;BME280;37739;50.350;7.578;2022-10-16T06:08:43;99598.00;;;14.33;93.92
47883;BME280;37739;50.350;7.578;2022-10-16T06:11:13;99603.16;;;14.33;94.20
47883;BME280;37739;50.350;7.578;2022-10-16T06:13:39;99609.13;;;14.31;94.09
47883;BME280;37739;50.350;7.578;2022-10-16T06:16:07;99597.09;;;14.30;94.45
47883;BME280;37739;50.350;7.578;2022-10-16T06:18:32;99597.84;;;14.26;94.55
47883;BME280;37739;50.350;7.578;2022-10-16T06:21:10;99597.81;;;14.23;94.78
47883;BME280;37739;50.350;7.578;2022-10-16T06:23:38;99584.84;;;14.20;95.00
47883;BME280;37739;50.350;7.578;2022-10-16T06:26:14;99583.94;;;14.18;95.72
47883;BME280;37739;50.350;7.578;2022-10-16T06:28:40;99591.72;;;14.19;95.25
47883;BME280;37739;50.350;7.578;2022-10-16T06:31:07;99597.69;;;14.18;95.63
47883;BME280;37739;50.350;7.578;2022-10-16T06:33:33;99602.03;;;14.19;95.47
47883;BME280;37739;50.350;7.578;2022-10-16T06:36:06;99602.91;;;14.20;95.71
47883;BME280;37739;50.350;7.578;2022-10-16T06:38:34;99602.91;;;14.20;95.61
47883;BME280;37739;50.350;7.578;2022-10-16T06:41:03;99607.22;;;14.21;95.61
47883;BME280;37739;50.350;7.578;2022-10-16T06:43:29;99614.13;;;14.22;95.55
47883;BME280;37739;50.350;7.578;2022-10-16T06:46:00;99618.44;;;14.23;95.94
47883;BME280;37739;50.350;7.578;2022-10-16T06:48:28;99633.97;;;14.24;95.84
47883;BME280;37739;50.350;7.578;2022-10-16T06:51:02;99637.41;;;14.25;95.89
47883;BME280;37739;50.350;7.578;2022-10-16T06:53:29;99641.72;;;14.26;95.84
47883;BME280;37739;50.350;7.578;2022-10-16T06:55:56;99651.25;;;14.28;95.97
47883;BME280;37739;50.350;7.578;2022-10-16T06:58:26;99657.25;;;14.29;96.19
47883;BME280;37739;50.350;7.578;2022-10-16T07:00:56;99663.31;;;14.31;95.77
47883;BME280;37739;50.350;7.578;2022-10-16T07:03:24;99681.47;;;14.34;95.71
47883;BME280;37739;50.350;7.578;2022-10-16T07:05:52;99682.31;;;14.34;95.88
47883;BME280;37739;50.350;7.578;2022-10-16T07:08:17;99690.13;;;14.38;95.65
47883;BME280;37739;50.350;7.578;2022-10-16T07:10:45;99705.66;;;14.41;95.76
47883;BME280;37739;50.350;7.578;2022-10-16T07:13:12;99693.63;;;14.41;95.37
47883;BME280;37739;50.350;7.578;2022-10-16T07:15:39;99681.66;;;14.45;95.26
47883;BME280;37739;50.350;7.578;2022-10-16T07:18:04;99691.13;;;14.44;95.11
47883;BME280;37739;50.350;7.578;2022-10-16T07:20:32;99698.84;;;14.44;94.60
47883;BME280;37739;50.350;7.578;2022-10-16T07:23:00;99694.63;;;14.48;94.60
47883;BME280;37739;50.350;7.578;2022-10-16T07:25:25;99701.50;;;14.49;94.80
47883;BME280;37739;50.350;7.578;2022-10-16T07:27:50;99699.81;;;14.51;94.57
47883;BME280;37739;50.350;7.578;2022-10-16T07:30:21;99692.97;;;14.51;94.56
47883;BME280;37739;50.350;7.578;2022-10-16T07:32:47;99693.00;;;14.53;94.79
47883;BME280;37739;50.350;7.578;2022-10-16T07:35:14;99710.22;;;14.54;95.03
47883;BME280;37739;50.350;7.578;2022-10-16T07:37:46;99718.84;;;14.54;95.14
47883;BME280;37739;50.350;7.578;2022-10-16T07:40:11;99722.31;;;14.55;95.26
47883;BME280;37739;50.350;7.578;2022-10-16T07:42:37;99725.75;;;14.56;95.55
47883;BME280;37739;50.350;7.578;2022-10-16T07:45:05;99723.25;;;14.57;95.29
47883;BME280;37739;50.350;7.578;2022-10-16T07:47:33;99724.19;;;14.61;95.25
47883;BME280;37739;50.350;7.578;2022-10-16T07:49:58;99732.81;;;14.63;95.26
47883;BME280;37739;50.350;7.578;2022-10-16T07:52:24;99732.81;;;14.64;95.15
47883;BME280;37739;50.350;7.578;2022-10-16T07:54:49;99740.63;;;14.67;95.36
47883;BME280;37739;50.350;7.578;2022-10-16T07:57:14;99742.38;;;14.67;95.45
47883;BME280;37739;50.350;7.578;2022-10-16T07:59:47;99744.13;;;14.69;95.68
47883;BME280;37739;50.350;7.578;2022-10-16T08:02:12;99735.56;;;14.70;95.31
47883;BME280;37739;50.350;7.578;2022-10-16T08:04:37;99731.28;;;14.72;95.43
47883;BME280;37739;50.350;7.578;2022-10-16T08:07:07;99738.25;;;14.77;95.00
47883;BME280;37739;50.350;7.578;2022-10-16T08:09:32;99752.91;;;14.79;94.86
47883;BME280;37739;50.350;7.578;2022-10-16T08:11:58;99764.19;;;14.83;94.53
47883;BME280;37739;50.350;7.578;2022-10-16T08:14:23;99751.25;;;14.83;94.77
47883;BME280;37739;50.350;7.578;2022-10-16T08:16:48;99766.94;;;14.92;94.35
47883;BME280;37739;50.350;7.578;2022-10-16T08:19:13;99773.06;;;14.99;93.82
47883;BME280;37739;50.350;7.578;2022-10-16T08:21:41;99773.97;;;14.99;93.88
47883;BME280;37739;50.350;7.578;2022-10-16T08:24:06;99782.63;;;15.01;94.53
47883;BME280;37739;50.350;7.578;2022-10-16T08:26:34;99791.19;;;15.00;94.95
47883;BME280;37739;50.350;7.578;2022-10-16T08:28:59;99783.47;;;15.02;95.12
47883;BME280;37739;50.350;7.578;2022-10-16T08:31:25;99799.03;;;15.03;94.29
47883;BME280;37739;50.350;7.578;2022-10-16T08:33:54;99796.47;;;15.06;93.99
47883;BME280;37739;50.350;7.578;2022-10-16T08:36:21;99797.41;;;15.10;93.03
47883;BME280;37739;50.350;7.578;2022-10-16T08:38:48;99802.75;;;15.19;93.40
47883;BME280;37739;50.350;7.578;2022-10-16T08:47:17;99820.78;;;15.15;93.09
47883;BME280;37739;50.350;7.578;2022-10-16T08:49:56;99824.09;;;15.10;93.58
47883;BME280;37739;50.350;7.578;2022-10-16T08:52:29;99835.41;;;15.16;93.47
47883;BME280;37739;50.350;7.578;2022-10-16T08:55:00;99843.28;;;15.22;93.49
47883;BME280;37739;50.350;7.578;2022-10-16T08:57:27;99836.41;;;15.24;93.23
47883;BME280;37739;50.350;7.578;2022-10-16T08:59:54;99827.94;;;15.31;93.14
47883;BME280;37739;50.350;7.578;2022-10-16T09:02:32;99833.34;;;15.45;92.98
47883;BME280;37739;50.350;7.578;2022-10-16T09:10:30;99849.56;;;15.83;90.79
47883;BME280;37739;50.350;7.578;2022-10-16T09:13:18;99845.38;;;15.92;90.32
47883;BME280;37739;50.350;7.578;2022-10-16T09:16:08;99846.34;;;15.98;89.41
47883;BME280;37739;50.350;7.578;2022-10-16T09:18:54;99859.16;;;15.90;89.46
47883;BME280;37739;50.350;7.578;2022-10-16T09:21:25;99865.97;;;15.85;90.22
47883;BME280;37739;50.350;7.578;2022-10-16T09:23:55;99866.81;;;15.83;90.37
47883;BME280;37739;50.350;7.578;2022-10-16T09:26:22;99865.06;;;15.83;90.39
47883;BME280;37739;50.350;7.578;2022-10-16T09:28:48;99862.47;;;15.80;90.37
47883;BME280;37739;50.350;7.578;2022-10-16T09:31:16;99859.81;;;15.77;90.75
47883;BME280;37739;50.350;7.578;2022-10-16T09:33:43;99868.44;;;15.76;90.99
47883;BME280;37739;50.350;7.578;2022-10-16T09:36:11;99873.59;;;15.76;90.99
47883;BME280;37739;50.350;7.578;2022-10-16T09:38:40;99864.09;;;15.75;91.16
47883;BME280;37739;50.350;7.578;2022-10-16T09:41:18;99871.84;;;15.75;90.79
47883;BME280;37739;50.350;7.578;2022-10-16T09:46:22;99859.09;;;15.86;90.80
47883;BME280;37739;50.350;7.578;2022-10-16T09:48:51;99857.53;;;15.96;90.22
47883;BME280;37739;50.350;7.578;2022-10-16T09:51:29;99860.31;;;16.08;89.54
47883;BME280;37739;50.350;7.578;2022-10-16T09:54:11;99863.75;;;16.08;88.94
47883;BME280;37739;50.350;7.578;2022-10-16T09:56:39;99871.59;;;16.13;89.37
47883;BME280;37739;50.350;7.578;2022-10-16T09:59:14;99868.06;;;16.08;88.59
47883;BME280;37739;50.350;7.578;2022-10-16T10:01:55;99870.69;;;16.09;88.58
47883;BME280;37739;50.350;7.578;2022-10-16T10:04:23;99870.00;;;16.21;88.71
47883;BME280;37739;50.350;7.578;2022-10-16T10:06:54;99862.44;;;16.35;88.08
47883;BME280;37739;50.350;7.578;2022-10-16T10:09:21;99858.66;;;16.73;87.14
47883;BME280;37739;50.350;7.578;2022-10-16T10:14:38;99858.59;;;17.43;82.72
47883;BME280;37739;50.350;7.578;2022-10-16T10:19:37;99868.44;;;17.75;81.46
47883;BME280;37739;50.350;7.578;2022-10-16T10:27:59;99861.25;;;17.46;81.55
47883;BME280;37739;50.350;7.578;2022-10-16T10:36:39;99845.63;;;18.50;78.41
47883;BME280;37739;50.350;7.578;2022-10-16T10:39:30;99838.81;;;18.71;77.16
47883;BME280;37739;50.350;7.578;2022-10-16T10:50:29;99840.78;;;19.44;71.36
47883;BME280;37739;50.350;7.578;2022-10-16T11:07:13;99839.94;;;20.22;68.04
47883;BME280;37739;50.350;7.578;2022-10-16T11:09:44;99843.41;;;20.35;69.40
47883;BME280;37739;50.350;7.578;2022-10-16T11:12:35;99855.53;;;20.47;65.90
47883;BME280;37739;50.350;7.578;2022-10-16T11:15:11;99857.25;;;20.69;67.34
47883;BME280;37739;50.350;7.578;2022-10-16T11:17:51;99852.03;;;20.52;67.46
47883;BME280;37739;50.350;7.578;2022-10-16T11:20:28;99851.19;;;20.50;67.61
47883;BME280;37739;50.350;7.578;2022-10-16T11:23:02;99842.53;;;20.30;66.33
47883;BME280;37739;50.350;7.578;2022-10-16T11:25:32;99841.59;;;20.49;68.62
47883;BME280;37739;50.350;7.578;2022-10-16T11:28:10;99847.63;;;20.76;67.87
47883;BME280;37739;50.350;7.578;2022-10-16T11:30:44;99852.75;;;20.97;66.66
47883;BME280;37739;50.350;7.578;2022-10-16T11:41:18;99846.69;;;20.98;65.88
47883;BME280;37739;50.350;7.578;2022-10-16T11:43:56;99849.22;;;21.12;65.68
47883;BME280;37739;50.350;7.578;2022-10-16T11:46:26;99852.72;;;21.10;66.75
47883;BME280;37739;50.350;7.578;2022-10-16T11:48:58;99855.25;;;21.21;65.70
47883;BME280;37739;50.350;7.578;2022-10-16T11:51:40;99855.25;;;21.25;63.71
47883;BME280;37739;50.350;7.578;2022-10-16T11:56:48;99851.94;;;20.92;66.60
47883;BME280;37739;50.350;7.578;2022-10-16T12:04:51;99852.03;;;20.69;66.75
47883;BME280;37739;50.350;7.578;2022-10-16T12:07:27;99851.16;;;20.55;66.86
47883;BME280;37739;50.350;7.578;2022-10-16T12:09:57;99849.44;;;20.43;67.86
47883;BME280;37739;50.350;7.578;2022-10-16T12:15:25;99853.78;;;20.59;67.45
47883;BME280;37739;50.350;7.578;2022-10-16T12:17:54;99858.13;;;20.50;66.56
47883;BME280;37739;50.350;7.578;2022-10-16T12:20:33;99856.41;;;20.44;66.55
47883;BME280;37739;50.350;7.578;2022-10-16T12:23:05;99860.78;;;20.33;66.30
47883;BME280;37739;50.350;7.578;2022-10-16T12:25:39;99855.56;;;20.13;67.67
47883;BME280;37739;50.350;7.578;2022-10-16T12:28:21;99861.69;;;19.83;69.00
47883;BME280;37739;50.350;7.578;2022-10-16T12:30:58;99857.34;;;20.02;68.53
47883;BME280;37739;50.350;7.578;2022-10-16T12:33:33;99852.09;;;20.03;68.24
47883;BME280;37739;50.350;7.578;2022-10-16T12:36:01;99858.22;;;19.96;69.65
47883;BME280;37739;50.350;7.578;2022-10-16T12:41:00;99872.88;;;19.57;69.52
47883;BME280;37739;50.350;7.578;2022-10-16T12:43:40;99870.28;;;19.51;69.58
47883;BME280;37739;50.350;7.578;2022-10-16T12:48:41;99868.56;;;19.70;69.79
47883;BME280;37739;50.350;7.578;2022-10-16T12:53:45;99864.22;;;19.70;69.96
47883;BME280;37739;50.350;7.578;2022-10-16T13:17:52;99884.25;;;20.08;69.99
47883;BME280;37739;50.350;7.578;2022-10-16T13:28:37;99874.66;;;20.16;69.68
47883;BME280;37739;50.350;7.578;2022-10-16T13:31:15;99873.81;;;20.14;69.42
47883;BME280;37739;50.350;7.578;2022-10-16T13:33:46;99866.00;;;20.14;69.39
47883;BME280;37739;50.350;7.578;2022-10-16T13:36:29;99862.53;;;20.09;68.72
47883;BME280;37739;50.350;7.578;2022-10-16T13:39:40;99869.47;;;20.09;69.49
47883;BME280;37739;50.350;7.578;2022-10-16T13:42:10;99877.28;;;20.12;69.37
47883;BME280;37739;50.350;7.578;2022-10-16T13:44:43;99872.09;;;20.12;69.60
47883;BME280;37739;50.350;7.578;2022-10-16T13:47:26;99879.00;;;20.05;68.52
47883;BME280;37739;50.350;7.578;2022-10-16T13:50:09;99882.50;;;19.96;68.43
47883;BME280;37739;50.350;7.578;2022-10-16T13:52:36;99872.09;;;19.96;69.62
47883;BME280;37739;50.350;7.578;2022-10-16T13:55:04;99874.69;;;19.93;69.80
47883;BME280;37739;50.350;7.578;2022-10-16T13:57:29;99872.09;;;19.89;70.10
47883;BME280;37739;50.350;7.578;2022-10-16T13:59:55;99871.22;;;19.85;70.16
47883;BME280;37739;50.350;7.578;2022-10-16T14:02:32;99877.28;;;19.84;69.73
47883;BME280;37739;50.350;7.578;2022-10-16T14:05:04;99869.47;;;19.84;70.41
47883;BME280;37739;50.350;7.578;2022-10-16T14:07:34;99863.41;;;19.87;70.24
47883;BME280;37739;50.350;7.578;2022-10-16T14:10:07;99853.88;;;19.89;69.97
47883;BME280;37739;50.350;7.578;2022-10-16T14:12:43;99855.59;;;19.90;70.35
47883;BME280;37739;50.350;7.578;2022-10-16T14:15:17;99860.81;;;19.88;69.98
47883;BME280;37739;50.350;7.578;2022-10-16T14:17:48;99859.06;;;19.87;70.59
47883;BME280;37739;50.350;7.578;2022-10-16T14:20:16;99858.22;;;19.80;70.60
47883;BME280;37739;50.350;7.578;2022-10-16T14:22:41;99856.44;;;19.76;70.88
47883;BME280;37739;50.350;7.578;2022-10-16T14:27:57;99859.00;;;19.62;70.77
47883;BME280;37739;50.350;7.578;2022-10-16T14:30:26;99861.63;;;19.58;71.68
47883;BME280;37739;50.350;7.578;2022-10-16T14:33:02;99869.44;;;19.58;71.57
47883;BME280;37739;50.350;7.578;2022-10-16T14:35:36;99866.81;;;19.56;71.59
47883;BME280;37739;50.350;7.578;2022-10-16T14:38:03;99874.59;;;19.46;72.00
47883;BME280;37739;50.350;7.578;2022-10-16T14:40:34;99867.66;;;19.35;72.69
47883;BME280;37739;50.350;7.578;2022-10-16T14:43:01;99871.09;;;19.31;73.67
47883;BME280;37739;50.350;7.578;2022-10-16T14:45:30;99876.31;;;19.33;73.81
47883;BME280;37739;50.350;7.578;2022-10-16T14:48:00;99877.19;;;19.33;73.16
47883;BME280;37739;50.350;7.578;2022-10-16T14:50:29;99874.59;;;19.36;73.26
47883;BME280;37739;50.350;7.578;2022-10-16T14:52:56;99875.47;;;19.37;73.57
47883;BME280;37739;50.350;7.578;2022-10-16T14:55:23;99870.25;;;19.35;74.52
47883;BME280;37739;50.350;7.578;2022-10-16T14:57:49;99871.97;;;19.32;74.88
47883;BME280;37739;50.350;7.578;2022-10-16T15:00:20;99867.63;;;19.34;75.08
47883;BME280;37739;50.350;7.578;2022-10-16T15:02:50;99862.47;;;19.38;74.82
47883;BME280;37739;50.350;7.578;2022-10-16T15:05:21;99870.28;;;19.40;74.82
47883;BME280;37739;50.350;7.578;2022-10-16T15:07:50;99866.81;;;19.44;74.66
47883;BME280;37739;50.350;7.578;2022-10-16T15:10:17;99865.06;;;19.41;74.38
47883;BME280;37739;50.350;7.578;2022-10-16T15:12:43;99872.84;;;19.34;75.09
47883;BME280;37739;50.350;7.578;2022-10-16T15:15:44;99879.75;;;19.30;75.30
47883;BME280;37739;50.350;7.578;2022-10-16T15:18:10;99884.09;;;19.25;75.57
47883;BME280;37739;50.350;7.578;2022-10-16T15:20:39;99882.34;;;19.22;76.05